createdAt,value
2018-01-14T21:25:50.825Z,1008.9984
2018-01-14T21:26:50.686Z,1009.0382
2018-01-14T21:27:50.685Z,1008.9641
2018-01-14T21:28:50.811Z,1008.9654
2018-01-14T21:29:50.727Z,1009.0099
2018-01-14T21:30:50.687Z,1008.8962
2018-01-14T21:31:50.818Z,1008.946
2018-01-14T21:32:50.885Z,1008.9343
2018-01-14T21:33:50.691Z,1008.9412
2018-01-14T21:34:50.692Z,1008.9279
2018-01-14T21:35:50.709Z,1008.8501
2018-01-14T21:36:50.699Z,1008.8416
2018-01-14T21:37:50.835Z,1008.887
2018-01-14T21:38:50.751Z,1008.8871
2018-01-14T21:39:54.049Z,1008.8481
2018-01-14T21:40:50.699Z,1008.8334
2018-01-14T21:42:20.027Z,1008.8869
2018-01-14T21:43:19.898Z,1008.8426
2018-01-14T21:44:19.893Z,1008.8285
2018-01-14T21:45:19.893Z,1008.8282
2018-01-14T21:46:19.899Z,1008.816
2018-01-14T21:47:19.889Z,1008.8343
2018-01-14T21:48:19.927Z,1008.8005
2018-01-14T21:49:19.900Z,1008.7664
2018-01-14T21:50:19.906Z,1008.7852
2018-01-14T21:51:19.974Z,1008.7852
2018-01-14T21:52:19.897Z,1008.7565
2018-01-14T21:53:19.895Z,1008.7296
2018-01-14T21:54:19.941Z,1008.7565
2018-01-14T21:55:19.902Z,1008.7701
2018-01-14T21:56:19.904Z,1008.7629
2018-01-14T21:57:19.910Z,1008.7443
2018-01-14T21:58:19.911Z,1008.7022
2018-01-14T21:59:19.906Z,1008.6738
2018-01-14T22:00:20.246Z,1008.6688
2018-01-14T22:01:19.915Z,1008.6891
2018-01-14T22:02:19.914Z,1008.608
2018-01-14T22:03:19.903Z,1008.5709
2018-01-14T22:04:19.909Z,1008.5807
2018-01-14T22:05:19.907Z,1008.5519
2018-01-14T22:06:20.024Z,1008.5807
2018-01-14T22:07:19.921Z,1008.6309
2018-01-14T22:08:19.909Z,1008.6443
2018-01-14T22:09:19.941Z,1008.614
2018-01-14T22:10:19.911Z,1008.614
2018-01-14T22:11:19.909Z,1008.6224
2018-01-14T22:12:19.959Z,1008.6224
